Time;durP1;ratioP1;P1;durP2;ratioP2;P2;SDS_P1;SDS_P2;PMS_P1;PMS_P2;Temp;Humidity;BMP_temperature;BMP_pressure;BME280_temperature;BME280_humidity;BME280_pressure;Samples;Min_cycle;Max_cycle;Signal;HPM_P1;HPM_P2
2022/01/09 00:01:16;;;;;;;0.98;0.95;;;;;;;2.22;86.54;98623.38;5010850;28;20539;-88
2022/01/09 00:03:43;;;;;;;1.88;1.75;;;;;;;2.25;86.50;98609.59;5028816;28;20060;-87
2022/01/09 00:06:10;;;;;;;1.70;1.00;;;;;;;2.27;86.21;98610.44;5011871;28;20056;-87
2022/01/09 00:08:38;;;;;;;2.15;1.15;;;;;;;2.29;85.98;98614.72;5032721;28;20041;-86
2022/01/09 00:11:04;;;;;;;2.40;1.30;;;;;;;2.33;85.73;98612.09;5015855;28;20120;-87
2022/01/09 00:13:31;;;;;;;1.60;1.10;;;;;;;2.35;85.70;98605.19;5018519;28;20045;-88
2022/01/09 00:15:58;;;;;;;1.05;1.05;;;;;;;2.36;85.73;98605.19;5024574;28;20080;-86
2022/01/09 00:18:24;;;;;;;1.27;1.10;;;;;;;2.38;85.40;98603.44;5024893;28;20613;-87
2022/01/09 00:20:52;;;;;;;2.05;1.10;;;;;;;2.41;84.90;98594.81;5014351;28;20049;-87
2022/01/09 00:23:18;;;;;;;4.97;1.48;;;;;;;2.41;84.84;98602.56;5009127;28;20491;-86
2022/01/09 00:25:45;;;;;;;3.90;1.33;;;;;;;2.42;84.95;98589.63;5028578;28;20060;-87
2022/01/09 00:28:11;;;;;;;3.53;0.93;;;;;;;2.44;85.12;98580.16;5016454;28;20056;-87
2022/01/09 00:30:38;;;;;;;2.25;1.90;;;;;;;2.44;85.49;98581.88;5030129;28;20470;-87
2022/01/09 00:33:08;;;;;;;1.63;1.30;;;;;;;2.45;85.17;98576.69;5008435;28;20049;-87
2022/01/09 00:35:35;;;;;;;1.92;1.55;;;;;;;2.44;85.48;98575.00;5020718;28;20052;-87
2022/01/09 00:38:02;;;;;;;1.83;1.27;;;;;;;2.46;85.34;98577.53;5015724;28;20049;-87
2022/01/09 00:40:28;;;;;;;4.28;2.15;;;;;;;2.46;84.94;98567.22;5032583;28;20048;-87
2022/01/09 00:42:54;;;;;;;1.30;1.20;;;;;;;2.47;85.30;98562.03;5006784;28;20050;-87
2022/01/09 00:45:21;;;;;;;2.83;1.40;;;;;;;2.47;85.53;98568.94;5019194;28;20048;-87
2022/01/09 00:47:47;;;;;;;1.33;1.23;;;;;;;2.47;85.66;98561.19;5024753;28;20183;-88
2022/01/09 00:50:16;;;;;;;1.50;1.40;;;;;;;2.47;85.56;98561.19;5029294;28;20046;-87
2022/01/09 00:52:42;;;;;;;1.70;1.60;;;;;;;2.48;85.40;98552.56;5028295;28;20052;-87
2022/01/09 00:55:10;;;;;;;2.42;1.65;;;;;;;2.50;85.86;98550.81;5022611;28;20249;-87
2022/01/09 00:57:37;;;;;;;2.22;1.70;;;;;;;2.49;86.11;98546.53;5016860;28;20453;-86
2022/01/09 01:00:07;;;;;;;1.23;1.13;;;;;;;2.48;86.19;98542.25;5019807;28;20199;-85
2022/01/09 01:02:33;;;;;;;1.83;1.73;;;;;;;2.50;86.43;98532.75;5018096;28;20799;-86
2022/01/09 01:05:00;;;;;;;3.70;1.63;;;;;;;2.51;86.10;98538.78;5019585;28;20057;-88
2022/01/09 01:07:28;;;;;;;1.60;1.50;;;;;;;2.50;86.14;98530.16;5030512;28;20082;-87
2022/01/09 01:09:56;;;;;;;1.52;1.38;;;;;;;2.53;86.47;98526.69;5032155;28;20051;-87
2022/01/09 01:12:27;;;;;;;1.52;1.42;;;;;;;2.53;86.75;98531.84;5016829;28;20077;-87
2022/01/09 01:14:53;;;;;;;3.25;1.55;;;;;;;2.52;86.85;98531.00;5033122;28;20213;-87
2022/01/09 01:17:21;;;;;;;2.53;1.65;;;;;;;2.54;86.68;98521.50;5035980;28;20450;-87
2022/01/09 01:19:48;;;;;;;1.17;1.08;;;;;;;2.54;86.94;98515.50;5041358;28;20041;-87
2022/01/09 01:22:16;;;;;;;1.40;1.38;;;;;;;2.54;86.48;98513.75;5013598;28;20053;-87
2022/01/09 01:24:44;;;;;;;3.03;1.90;;;;;;;2.51;86.74;98516.38;5042167;28;20064;-86
2022/01/09 01:27:11;;;;;;;1.00;1.00;;;;;;;2.51;86.78;98506.03;5034977;28;20052;-86
2022/01/09 01:29:39;;;;;;;2.08;1.70;;;;;;;2.51;87.19;98508.63;5037851;28;20049;-87
2022/01/09 01:32:07;;;;;;;3.95;1.80;;;;;;;2.51;86.95;98500.88;5033185;28;20217;-87
2022/01/09 01:34:33;;;;;;;1.85;1.75;;;;;;;2.50;86.92;98499.16;5017218;28;20148;-87
2022/01/09 01:37:01;;;;;;;2.20;2.00;;;;;;;2.49;87.57;98492.31;5021480;28;20404;-87
2022/01/09 01:39:28;;;;;;;1.63;1.52;;;;;;;2.48;87.66;98493.19;5018487;28;20135;-86
2022/01/09 01:41:54;;;;;;;2.35;1.58;;;;;;;2.51;87.59;98484.53;5035820;28;20044;-87
2022/01/09 01:44:21;;;;;;;2.03;1.77;;;;;;;2.46;87.75;98485.47;5033944;28;20111;-87
2022/01/09 01:46:47;;;;;;;1.63;1.45;;;;;;;2.50;87.56;98472.50;5033760;28;20041;-86
2022/01/09 01:49:14;;;;;;;2.67;1.70;;;;;;;2.48;87.91;98478.53;5044542;28;20124;-88
2022/01/09 01:51:43;;;;;;;3.00;2.10;;;;;;;2.45;88.08;98469.94;5024863;28;20052;-86
2022/01/09 01:54:12;;;;;;;1.75;1.50;;;;;;;2.43;88.33;98467.38;5033127;28;20715;-88
2022/01/09 01:56:40;;;;;;;1.60;1.50;;;;;;;2.40;88.69;98459.69;5022659;28;20132;-87
2022/01/09 01:59:10;;;;;;;1.45;1.35;;;;;;;2.40;88.65;98451.94;5019412;28;20056;-86
2022/01/09 02:01:37;;;;;;;2.70;1.65;;;;;;;2.41;88.95;98447.63;5040004;28;20068;-86
2022/01/09 02:04:06;;;;;;;1.45;1.35;;;;;;;2.37;89.47;98451.13;5025077;28;20052;-88
2022/01/09 02:06:35;;;;;;;1.42;1.33;;;;;;;2.32;90.18;98446.00;5023134;28;20215;-86
2022/01/09 02:09:04;;;;;;;1.77;1.50;;;;;;;2.29;90.38;98439.16;5039854;28;20052;-89
2022/01/09 02:11:32;;;;;;;2.03;1.70;;;;;;;2.28;91.04;98440.03;5017600;28;20064;-88
2022/01/09 02:13:59;;;;;;;1.85;1.75;;;;;;;2.24;91.74;98432.31;5022465;28;20053;-86
2022/01/09 02:16:26;;;;;;;3.30;1.42;;;;;;;2.23;92.11;98440.94;5034968;28;20072;-88
2022/01/09 02:18:53;;;;;;;3.15;1.55;;;;;;;2.20;92.02;98439.25;5037701;28;20113;-85
2022/01/09 02:21:22;;;;;;;1.63;1.52;;;;;;;2.21;92.54;98434.94;5021593;28;20052;-87
2022/01/09 02:23:49;;;;;;;2.22;1.70;;;;;;;2.19;93.14;98427.22;5019490;28;20392;-85
2022/01/09 02:26:21;;;;;;;1.67;1.50;;;;;;;2.18;93.09;98437.53;5037344;28;20183;-86
2022/01/09 02:28:48;;;;;;;1.70;1.30;;;;;;;2.13;94.04;98443.63;5023689;28;20045;-87
2022/01/09 02:31:16;;;;;;;1.63;1.52;;;;;;;2.12;94.00;98433.31;5020233;28;19924;-86
2022/01/09 02:33:43;;;;;;;1.60;1.50;;;;;;;2.09;94.42;98436.78;5038520;28;20041;-86
2022/01/09 02:36:11;;;;;;;2.40;2.13;;;;;;;2.10;94.72;98435.91;5034371;28;20070;-87
2022/01/09 02:38:38;;;;;;;1.63;1.00;;;;;;;2.10;94.57;98435.03;5019940;28;20045;-85
2022/01/09 02:41:05;;;;;;;1.50;1.40;;;;;;;2.07;95.24;98424.75;5039381;28;20056;-87
2022/01/09 02:43:35;;;;;;;4.22;1.70;;;;;;;2.05;94.95;98422.22;5042731;28;20567;-85
2022/01/09 02:46:15;;;;;;;1.23;1.10;;;;;;;2.04;95.08;98420.50;5057666;28;20045;-86
2022/01/09 02:48:47;;;;;;;1.27;1.27;;;;;;;2.07;95.12;98415.28;5042330;28;20048;-87
2022/01/09 02:51:20;;;;;;;1.40;1.30;;;;;;;2.09;94.89;98417.88;5056269;28;20037;-85
2022/01/09 02:54:07;;;;;;;2.75;2.13;;;;;;;2.09;94.74;98408.41;5053420;28;20040;-84
2022/01/09 02:56:35;;;;;;;2.05;1.52;;;;;;;2.13;94.96;98406.63;5043883;28;20037;-84
2022/01/09 02:59:03;;;;;;;1.40;1.25;;;;;;;2.11;94.54;98391.19;5038815;28;20036;-85
2022/01/09 03:01:38;;;;;;;1.38;1.08;;;;;;;2.10;95.14;98398.91;5045009;28;20072;-84
2022/01/09 03:04:09;;;;;;;2.25;2.13;;;;;;;2.09;94.69;98402.38;5050488;28;20068;-84
2022/01/09 03:06:38;;;;;;;1.20;1.10;;;;;;;2.08;94.95;98403.25;5057822;28;20053;-84
2022/01/09 03:09:08;;;;;;;1.40;1.27;;;;;;;2.10;95.10;98396.34;5055767;28;20155;-88
2022/01/09 03:11:42;;;;;;;1.42;1.33;;;;;;;2.09;95.13;98397.22;5053342;28;20040;-86
2022/01/09 03:14:14;;;;;;;1.40;1.23;;;;;;;2.08;95.56;98401.50;5034801;28;20033;-86
2022/01/09 03:16:41;;;;;;;1.20;1.10;;;;;;;2.10;95.85;98396.34;5038513;28;20593;-85
2022/01/09 03:19:08;;;;;;;1.42;1.10;;;;;;;2.07;95.75;98394.63;5038831;28;20025;-84
2022/01/09 03:21:41;;;;;;;1.30;1.20;;;;;;;2.09;95.72;98392.06;5040279;28;20394;-84
2022/01/09 03:24:16;;;;;;;4.45;1.40;;;;;;;2.07;96.02;98392.06;5038134;28;20041;-85
2022/01/09 03:26:45;;;;;;;1.35;1.17;;;;;;;2.08;96.19;98398.09;5054179;28;20033;-84
2022/01/09 03:29:15;;;;;;;1.83;1.73;;;;;;;2.08;95.98;98398.09;5039192;28;20025;-86
2022/01/09 03:31:42;;;;;;;1.20;1.10;;;;;;;2.10;96.25;98397.22;5043816;28;20130;-84
2022/01/09 03:34:22;;;;;;;2.90;2.05;;;;;;;2.10;96.16;98396.34;5054000;28;20126;-84
2022/01/09 03:36:52;;;;;;;2.83;1.88;;;;;;;2.08;96.00;98400.66;5040324;28;20041;-86
2022/01/09 03:39:24;;;;;;;1.50;1.50;;;;;;;2.08;96.73;98396.34;5050001;28;20097;-85
2022/01/09 03:42:01;;;;;;;1.10;1.08;;;;;;;2.07;96.11;98394.63;5037019;28;20109;-83
2022/01/09 03:44:29;;;;;;;2.28;1.52;;;;;;;2.10;96.38;98388.59;5051565;28;20053;-85
2022/01/09 03:46:59;;;;;;;3.05;1.42;;;;;;;2.09;96.44;98390.31;5043513;28;20053;-87
2022/01/09 03:49:31;;;;;;;1.40;1.40;;;;;;;2.11;96.27;98387.72;5037071;28;20100;-85
2022/01/09 03:52:03;;;;;;;1.48;1.38;;;;;;;2.11;96.51;98385.13;5048937;28;20049;-85
2022/01/09 03:54:37;;;;;;;2.38;1.58;;;;;;;2.11;96.29;98387.72;5037424;28;20055;-85
2022/01/09 03:57:07;;;;;;;1.45;1.35;;;;;;;2.12;96.34;98381.69;5039893;28;20065;-86
2022/01/09 03:59:42;;;;;;;3.50;1.45;;;;;;;2.11;96.10;98378.28;5052577;28;20094;-85
2022/01/09 04:05:04;;;;;;;1.35;1.35;;;;;;;2.16;95.80;98380.78;5055291;28;20052;-84
2022/01/09 04:07:37;;;;;;;1.20;1.20;;;;;;;2.18;95.67;98380.75;5054572;28;20060;-84
2022/01/09 04:10:08;;;;;;;1.83;1.52;;;;;;;2.17;95.80;98381.66;5037236;28;20041;-85
2022/01/09 04:12:50;;;;;;;1.30;1.20;;;;;;;2.21;95.96;98385.91;5038454;28;20420;-85
2022/01/09 04:15:34;;;;;;;2.05;1.73;;;;;;;2.22;95.83;98392.78;5036731;28;20098;-84
2022/01/09 04:18:07;;;;;;;1.67;1.33;;;;;;;2.23;95.70;98384.16;5055629;28;20053;-84
2022/01/09 04:20:35;;;;;;;1.63;1.52;;;;;;;2.26;95.38;98391.88;5057059;28;20051;-85
2022/01/09 04:23:04;;;;;;;1.60;1.20;;;;;;;2.28;95.43;98383.22;5051689;28;20045;-85
2022/01/09 04:25:36;;;;;;;2.95;1.50;;;;;;;2.30;95.31;98391.78;5060774;28;20052;-85
2022/01/09 04:28:10;;;;;;;1.13;1.00;;;;;;;2.31;95.49;98388.34;5039322;28;20041;-86
2022/01/09 04:30:40;;;;;;;1.45;1.35;;;;;;;2.31;95.21;98396.09;5037834;28;20411;-85
2022/01/09 04:33:16;;;;;;;1.80;1.70;;;;;;;2.35;95.06;98403.78;5065901;28;20104;-85
2022/01/09 04:35:44;;;;;;;1.45;1.35;;;;;;;2.36;95.06;98401.22;5025926;28;20156;-88
2022/01/09 04:38:11;;;;;;;1.33;1.23;;;;;;;2.43;94.69;98408.00;5032543;28;20101;-87
2022/01/09 04:40:39;;;;;;;1.23;1.15;;;;;;;2.43;94.87;98404.56;5042819;28;20385;-85
2022/01/09 04:43:08;;;;;;;1.65;1.55;;;;;;;2.43;95.17;98410.59;5028502;28;20103;-86
2022/01/09 04:45:35;;;;;;;0.88;0.82;;;;;;;2.41;95.88;98408.88;5029081;28;20055;-88
2022/01/09 04:48:07;;;;;;;1.95;1.23;;;;;;;2.41;95.44;98409.75;5030831;28;20119;-86
2022/01/09 04:50:36;;;;;;;1.08;1.00;;;;;;;2.41;95.97;98417.50;5026896;28;20700;-84
2022/01/09 04:53:07;;;;;;;1.45;1.35;;;;;;;2.39;96.52;98402.91;5032190;28;20519;-85
2022/01/09 04:55:45;;;;;;;0.98;0.98;;;;;;;2.38;96.95;98398.63;5027054;28;20041;-85
2022/01/09 04:58:15;;;;;;;1.17;1.15;;;;;;;2.35;97.60;98407.25;5027846;28;20049;-86
2022/01/09 05:00:43;;;;;;;2.47;1.50;;;;;;;2.33;97.99;98408.13;5048145;28;20520;-84
2022/01/09 05:03:22;;;;;;;1.45;1.35;;;;;;;2.27;98.13;98402.16;5038871;28;20098;-85
2022/01/09 05:06:00;;;;;;;1.02;0.95;;;;;;;2.25;98.75;98413.38;5052902;28;20064;-84
2022/01/09 05:14:51;;;;;;;1.02;1.02;;;;;;;2.22;99.85;98416.84;5021435;28;20041;-85
2022/01/09 05:20:47;;;;;;;1.10;0.95;;;;;;;2.21;99.99;98424.63;5041079;28;20144;-84
2022/01/09 05:23:19;;;;;;;1.15;1.15;;;;;;;2.18;100.00;98425.50;5035220;28;20040;-87
2022/01/09 05:25:50;;;;;;;1.00;1.00;;;;;;;2.19;99.68;98426.34;5051320;28;20116;-84
2022/01/09 05:28:29;;;;;;;1.00;1.00;;;;;;;2.18;100.00;98433.25;5037454;28;20049;-84
2022/01/09 05:30:59;;;;;;;1.02;1.02;;;;;;;2.18;100.00;98432.38;5032135;28;20139;-82
2022/01/09 05:33:34;;;;;;;2.00;1.33;;;;;;;2.15;100.00;98438.44;5050420;28;20066;-83
2022/01/09 05:36:02;;;;;;;1.60;1.50;;;;;;;2.14;100.00;98437.59;5042603;28;20165;-84
2022/01/09 05:38:35;;;;;;;0.80;0.80;;;;;;;2.15;100.00;98444.47;5052736;28;20040;-83
2022/01/09 05:41:02;;;;;;;1.02;1.02;;;;;;;2.13;100.00;98451.34;5054799;28;20037;-84
2022/01/09 05:43:39;;;;;;;1.50;1.30;;;;;;;2.13;100.00;98453.94;5030469;28;20048;-84
2022/01/09 05:46:09;;;;;;;0.75;0.75;;;;;;;2.13;100.00;98447.94;5067642;28;20234;-84
2022/01/09 05:48:37;;;;;;;2.80;1.48;;;;;;;2.12;100.00;98448.81;5036734;28;20672;-84
2022/01/09 05:51:11;;;;;;;0.70;0.70;;;;;;;2.11;100.00;98450.53;5051299;28;20052;-84
2022/01/09 05:53:41;;;;;;;1.05;1.05;;;;;;;2.12;100.00;98456.53;5036124;28;20029;-84
2022/01/09 05:56:14;;;;;;;0.50;0.50;;;;;;;2.13;100.00;98466.84;5051156;28;20098;-84
2022/01/09 05:58:44;;;;;;;1.50;1.30;;;;;;;2.12;100.00;98467.72;5053877;28;20039;-86
2022/01/09 06:01:14;;;;;;;0.63;0.60;;;;;;;2.11;100.00;98478.94;5037958;28;20108;-84
2022/01/09 06:03:44;;;;;;;0.80;0.80;;;;;;;2.11;100.00;98476.34;5051610;28;20059;-83
2022/01/09 06:06:23;;;;;;;1.00;1.00;;;;;;;2.11;100.00;98478.06;5053965;28;20047;-85
2022/01/09 06:08:50;;;;;;;1.23;1.13;;;;;;;2.12;100.00;98482.34;5036122;28;20494;-82
2022/01/09 06:11:17;;;;;;;1.80;1.15;;;;;;;2.13;100.00;98486.66;5052711;28;20110;-84
2022/01/09 06:13:46;;;;;;;0.82;0.77;;;;;;;2.14;100.00;98491.78;5035858;28;20045;-84
2022/01/09 06:16:18;;;;;;;1.00;1.00;;;;;;;2.16;100.00;98489.19;5047385;28;20040;-84
2022/01/09 06:18:57;;;;;;;1.20;1.20;;;;;;;2.19;100.00;98486.59;5054608;28;20129;-82
2022/01/09 06:21:30;;;;;;;1.50;1.40;;;;;;;2.20;100.00;98488.28;5038734;28;20103;-84
2022/01/09 06:24:00;;;;;;;0.93;0.93;;;;;;;2.21;100.00;98495.16;5044892;28;20044;-83
2022/01/09 06:30:29;;;;;;;1.25;1.08;;;;;;;2.24;100.00;98504.59;5055435;28;20053;-84
2022/01/09 06:51:04;;;;;;;1.40;1.30;;;;;;;2.18;100.00;98535.63;4979537;28;20599;-88
2022/01/09 06:53:32;;;;;;;1.42;1.30;;;;;;;2.19;100.00;98535.66;4958464;28;20039;-86
2022/01/09 06:56:00;;;;;;;1.00;0.93;;;;;;;2.21;100.00;98545.94;4981221;28;20054;-84
2022/01/09 06:58:26;;;;;;;1.15;1.15;;;;;;;2.21;100.00;98541.63;4966216;28;20054;-85
2022/01/09 07:00:57;;;;;;;1.20;1.15;;;;;;;2.20;100.00;98552.81;4963373;28;20066;-83
2022/01/09 07:03:26;;;;;;;0.98;0.98;;;;;;;2.20;100.00;98555.41;4976858;28;20062;-84
2022/01/09 07:05:53;;;;;;;1.17;0.85;;;;;;;2.21;100.00;98564.03;4977919;28;20061;-85
2022/01/09 07:08:23;;;;;;;0.57;0.57;;;;;;;2.20;100.00;98564.88;4966418;28;20054;-85
2022/01/09 07:10:56;;;;;;;1.33;0.77;;;;;;;2.17;100.00;98565.75;4961480;28;20142;-88
2022/01/09 07:13:23;;;;;;;0.50;0.50;;;;;;;2.17;100.00;98568.34;4942021;28;20050;-83
2022/01/09 07:15:52;;;;;;;0.50;0.50;;;;;;;2.14;100.00;98569.22;4968656;28;20058;-84
2022/01/09 07:18:22;;;;;;;0.50;0.50;;;;;;;2.13;100.00;98577.84;4948830;28;20057;-89
2022/01/09 07:20:49;;;;;;;0.50;0.50;;;;;;;2.13;100.00;98588.16;4981179;28;20488;-83
2022/01/09 07:23:16;;;;;;;0.50;0.50;;;;;;;2.13;100.00;98597.63;4956380;28;20046;-86
2022/01/09 07:25:43;;;;;;;1.13;0.68;;;;;;;2.09;100.00;98599.38;4964933;28;20718;-83
2022/01/09 07:28:12;;;;;;;0.82;0.82;;;;;;;2.06;100.00;98598.53;4950403;28;20050;-83
2022/01/09 07:30:38;;;;;;;0.60;0.60;;;;;;;2.00;100.00;98601.19;4964993;28;20488;-85
2022/01/09 07:33:08;;;;;;;0.70;0.60;;;;;;;1.94;100.00;98613.25;4967069;28;20131;-89
2022/01/09 07:35:36;;;;;;;0.73;0.30;;;;;;;1.91;100.00;98615.84;4966554;28;20043;-82
2022/01/09 07:38:04;;;;;;;0.32;0.32;;;;;;;1.90;100.00;98624.44;4985272;28;20046;-91
2022/01/09 07:40:31;;;;;;;0.43;0.30;;;;;;;1.86;100.00;98627.06;4954219;28;20050;-82
2022/01/09 07:42:58;;;;;;;0.40;0.40;;;;;;;1.81;100.00;98633.13;4964573;28;20054;-85
2022/01/09 07:45:27;;;;;;;0.30;0.30;;;;;;;1.81;100.00;98624.50;4954652;28;20053;-82
2022/01/09 07:47:57;;;;;;;0.57;0.57;;;;;;;1.78;100.00;98633.13;4983287;28;20769;-83
2022/01/09 07:50:27;;;;;;;0.32;0.32;;;;;;;1.75;100.00;98646.06;4968128;28;20062;-82
2022/01/09 07:52:54;;;;;;;0.60;0.60;;;;;;;1.74;100.00;98654.66;4965188;28;20056;-87
2022/01/09 07:55:23;;;;;;;0.70;0.70;;;;;;;1.76;100.00;98659.78;4957801;28;20407;-84
2022/01/09 07:58:05;;;;;;;0.40;0.40;;;;;;;1.72;100.00;98668.41;4967835;28;20046;-90
2022/01/09 08:00:35;;;;;;;0.35;0.35;;;;;;;1.71;100.00;98664.13;4961413;28;20089;-86
2022/01/09 08:03:02;;;;;;;0.30;0.30;;;;;;;1.73;100.00;98675.31;4951551;28;20049;-86
2022/01/09 08:05:35;;;;;;;0.60;0.50;;;;;;;1.69;100.00;98678.78;4949506;28;20046;-88
2022/01/09 08:08:01;;;;;;;0.25;0.25;;;;;;;1.65;100.00;98676.19;4944894;28;20057;-84
2022/01/09 08:10:28;;;;;;;0.32;0.28;;;;;;;1.68;100.00;98682.19;4966701;28;20046;-86
2022/01/09 08:12:56;;;;;;;0.30;0.30;;;;;;;1.65;100.00;98685.66;4960613;28;20051;-85
2022/01/09 08:15:23;;;;;;;0.20;0.20;;;;;;;1.62;100.00;98691.69;4963275;28;20116;-83
2022/01/09 08:17:50;;;;;;;3.55;2.30;;;;;;;1.60;100.00;98695.13;4963049;28;20071;-82
2022/01/09 08:20:18;;;;;;;2.30;1.00;;;;;;;1.57;100.00;98700.31;4962441;28;20042;-87
2022/01/09 08:22:44;;;;;;;1.95;0.30;;;;;;;1.56;100.00;98707.19;4934343;28;20050;-84
2022/01/09 08:25:13;;;;;;;1.35;0.65;;;;;;;1.55;100.00;98708.06;4979549;28;20038;-85
2022/01/09 08:27:42;;;;;;;0.63;0.57;;;;;;;1.51;100.00;98716.66;4968361;28;20083;-90
2022/01/09 08:30:10;;;;;;;0.80;0.80;;;;;;;1.51;100.00;98715.81;4983838;28;20050;-82
2022/01/09 08:32:39;;;;;;;0.90;0.70;;;;;;;1.46;100.00;98710.66;4953371;28;20050;-89
2022/01/09 08:35:07;;;;;;;1.70;1.40;;;;;;;1.44;100.00;98715.81;4977957;28;20050;-89
2022/01/09 08:37:34;;;;;;;1.15;1.15;;;;;;;1.45;100.00;98721.84;4977770;28;20050;-91
2022/01/09 08:40:02;;;;;;;1.75;1.00;;;;;;;1.46;100.00;98716.69;4978983;28;20050;-85
2022/01/09 08:42:29;;;;;;;0.70;0.70;;;;;;;1.52;100.00;98725.25;4998052;28;20042;-83
2022/01/09 08:45:02;;;;;;;2.25;0.90;;;;;;;1.58;100.00;98727.81;4996894;28;20058;-84
2022/01/09 08:47:29;;;;;;;1.13;0.93;;;;;;;1.60;100.00;98726.97;4980268;28;20054;-88
2022/01/09 08:49:56;;;;;;;1.52;1.42;;;;;;;1.65;100.00;98726.91;4977264;28;20054;-86
2022/01/09 08:52:24;;;;;;;1.35;1.02;;;;;;;1.66;100.00;98733.81;4979741;28;20065;-89
2022/01/09 08:54:52;;;;;;;8.32;4.35;;;;;;;1.69;100.00;98727.78;4984763;28;20038;-83
2022/01/09 08:57:18;;;;;;;5.88;2.90;;;;;;;1.74;100.00;98737.19;4959271;28;20061;-84
2022/01/09 08:59:47;;;;;;;3.20;1.63;;;;;;;1.82;100.00;98742.31;4974267;28;20057;-82
2022/01/09 09:02:15;;;;;;;3.45;2.42;;;;;;;1.86;100.00;98748.34;4971766;28;20052;-83
2022/01/09 09:04:41;;;;;;;1.50;1.40;;;;;;;1.90;100.00;98743.13;4949831;28;20050;-83
2022/01/09 09:07:09;;;;;;;2.53;2.33;;;;;;;1.94;100.00;98742.28;4977083;28;20155;-82
2022/01/09 09:09:44;;;;;;;3.83;3.03;;;;;;;1.98;100.00;98749.16;4987389;28;20093;-81
2022/01/09 09:12:12;;;;;;;2.70;2.20;;;;;;;2.02;100.00;98762.03;4957802;28;20507;-85
2022/01/09 09:14:39;;;;;;;5.03;3.65;;;;;;;2.05;100.00;98764.59;4952992;28;20058;-83
2022/01/09 09:17:05;;;;;;;5.72;2.15;;;;;;;2.11;100.00;98774.88;4966673;28;20047;-80
2022/01/09 09:19:33;;;;;;;4.47;3.03;;;;;;;2.12;100.00;98776.59;4972936;28;20042;-83
2022/01/09 09:21:59;;;;;;;4.82;2.88;;;;;;;2.17;100.00;98785.19;4964236;28;20065;-80
2022/01/09 09:24:28;;;;;;;6.60;3.72;;;;;;;2.23;100.00;98781.69;4972000;28;20038;-88
2022/01/09 09:26:56;;;;;;;3.03;2.30;;;;;;;2.24;100.00;98792.03;4976730;28;20050;-85
2022/01/09 09:29:23;;;;;;;4.55;2.22;;;;;;;2.28;100.00;98793.75;4971676;28;20042;-81
2022/01/09 09:31:50;;;;;;;2.25;1.95;;;;;;;2.36;100.00;98790.25;4957498;28;20070;-89
2022/01/09 09:34:16;;;;;;;2.47;1.67;;;;;;;2.41;100.00;98803.97;4969614;28;20066;-87
2022/01/09 09:36:44;;;;;;;4.57;2.78;;;;;;;2.44;100.00;98801.41;4988987;28;20046;-82
2022/01/09 09:39:15;;;;;;;5.97;3.63;;;;;;;2.50;100.00;98808.25;4972152;28;20049;-85
2022/01/09 09:41:43;;;;;;;3.38;2.42;;;;;;;2.53;100.00;98810.78;4968202;28;20046;-88
2022/01/09 09:44:10;;;;;;;4.45;2.35;;;;;;;2.54;100.00;98813.38;4969499;28;20046;-83
2022/01/09 09:46:40;;;;;;;3.75;2.63;;;;;;;2.58;100.00;98816.78;4964209;28;20445;-85
2022/01/09 09:49:07;;;;;;;6.05;3.05;;;;;;;2.62;100.00;98813.31;4957343;28;20058;-86
2022/01/09 09:51:34;;;;;;;6.18;4.78;;;;;;;2.65;100.00;98821.91;4988114;28;20053;-84
2022/01/09 09:54:01;;;;;;;6.00;4.47;;;;;;;2.74;100.00;98822.75;4948108;28;20050;-89
2022/01/09 09:56:28;;;;;;;5.13;3.08;;;;;;;2.78;100.00;98822.69;4969362;28;20060;-86
2022/01/09 09:58:59;;;;;;;7.95;3.53;;;;;;;2.85;100.00;98823.50;4968588;28;20203;-86
2022/01/09 10:01:30;;;;;;;3.63;3.08;;;;;;;2.90;100.00;98826.06;4941663;28;20061;-81
2022/01/09 10:04:02;;;;;;;8.93;3.78;;;;;;;2.92;100.00;98826.91;4969027;28;20046;-84
2022/01/09 10:06:44;;;;;;;7.82;4.28;;;;;;;2.97;100.00;98832.88;4981226;28;20053;-78
2022/01/09 10:09:13;;;;;;;9.57;4.55;;;;;;;3.00;100.00;98827.72;4986611;28;20050;-84
2022/01/09 10:11:53;;;;;;;7.05;4.57;;;;;;;3.05;100.00;98832.84;4947235;28;20046;-85
2022/01/09 10:14:33;;;;;;;9.57;4.40;;;;;;;3.13;100.00;98838.81;4967990;28;20369;-82
2022/01/09 10:17:12;;;;;;;11.88;4.43;;;;;;;3.20;100.00;98839.63;4966799;28;20051;-84
2022/01/09 10:19:45;;;;;;;10.30;4.95;;;;;;;3.26;100.00;98832.66;4962277;28;20061;-84
2022/01/09 10:22:36;;;;;;;13.55;3.80;;;;;;;3.34;100.00;98835.19;4978022;28;21168;-83
2022/01/09 10:25:40;;;;;;;16.15;3.95;;;;;;;3.49;100.00;98836.75;4978150;28;20061;-83
2022/01/09 10:28:09;;;;;;;19.17;4.28;;;;;;;3.56;100.00;98838.44;4953322;28;20050;-81
2022/01/09 10:30:44;;;;;;;16.05;4.93;;;;;;;3.64;100.00;98848.72;4963772;28;20046;-85
2022/01/09 10:33:25;;;;;;;10.80;4.68;;;;;;;3.73;100.00;98853.78;4965504;28;20078;-82
2022/01/09 10:35:55;;;;;;;14.05;4.47;;;;;;;3.83;100.00;98861.47;4954698;28;20057;-82
2022/01/09 10:38:30;;;;;;;14.80;5.15;;;;;;;3.87;100.00;98857.97;4964791;28;20038;-83
2022/01/09 10:41:05;;;;;;;11.73;5.20;;;;;;;3.92;100.00;98869.13;4959002;28;20620;-86
2022/01/09 10:43:32;;;;;;;14.00;4.55;;;;;;;3.95;100.00;98872.53;4964363;28;20039;-83
2022/01/09 10:45:59;;;;;;;11.82;4.22;;;;;;;4.02;100.00;98872.47;4984133;28;21341;-88
2022/01/09 10:48:46;;;;;;;12.52;4.28;;;;;;;4.06;100.00;98876.75;4966511;28;20050;-84
2022/01/09 10:51:17;;;;;;;15.00;4.10;;;;;;;4.08;100.00;98887.94;4974606;28;20049;-83
2022/01/09 10:53:46;;;;;;;17.10;4.55;;;;;;;4.10;100.00;98883.59;4966960;28;20038;-83
2022/01/09 10:56:25;;;;;;;11.30;4.65;;;;;;;4.13;100.00;98886.16;4963298;28;20070;-86
2022/01/09 10:58:59;;;;;;;16.60;5.00;;;;;;;4.16;100.00;98899.09;4968313;28;20201;-87
2022/01/09 11:01:35;;;;;;;11.68;3.42;;;;;;;4.17;100.00;98903.34;4979157;28;20046;-82
2022/01/09 11:06:49;;;;;;;10.88;2.60;;;;;;;4.17;100.00;98913.72;4969302;28;20112;-84
2022/01/09 11:09:18;;;;;;;14.60;3.03;;;;;;;4.21;100.00;98911.97;4955917;28;20485;-82
2022/01/09 11:11:55;;;;;;;10.10;2.80;;;;;;;4.22;100.00;98917.13;4969204;28;20447;-83
2022/01/09 11:14:26;;;;;;;12.45;4.93;;;;;;;4.24;100.00;98919.72;4977234;28;20098;-83
2022/01/09 11:16:55;;;;;;;12.82;4.10;;;;;;;4.23;100.00;98920.59;4961688;28;20165;-88
2022/01/09 11:22:12;;;;;;;11.93;3.03;;;;;;;4.18;100.00;98941.34;4968721;28;20057;-86
2022/01/09 11:25:04;;;;;;;11.85;2.75;;;;;;;4.18;100.00;98933.56;4966648;28;20038;-83
2022/01/09 11:27:44;;;;;;;8.32;2.28;;;;;;;4.18;100.00;98937.91;4967586;28;20565;-84
2022/01/09 11:30:47;;;;;;;8.43;3.33;;;;;;;4.16;100.00;98947.41;4971996;28;20050;-86
2022/01/09 11:34:00;;;;;;;8.65;2.72;;;;;;;4.11;100.00;98952.66;4966161;28;20038;-86
2022/01/09 11:36:38;;;;;;;11.10;3.05;;;;;;;4.11;100.00;98953.50;4951983;28;20094;-86
2022/01/09 11:39:35;;;;;;;11.95;3.80;;;;;;;4.10;100.00;98963.88;4967858;28;20105;-93
2022/01/09 11:42:09;;;;;;;14.85;3.33;;;;;;;4.11;100.00;98981.13;4940550;28;20646;-82
2022/01/09 11:44:47;;;;;;;9.02;2.95;;;;;;;4.11;100.00;98975.97;4965213;28;20057;-82
2022/01/09 11:47:14;;;;;;;12.95;3.03;;;;;;;4.16;100.00;98970.72;4987692;28;20058;-82
2022/01/09 11:49:56;;;;;;;17.85;4.88;;;;;;;4.16;100.00;98983.66;4969949;28;20108;-91
2022/01/09 11:52:28;;;;;;;15.25;5.38;;;;;;;4.15;100.00;98988.00;4962812;28;20069;-85
2022/01/09 11:54:58;;;;;;;15.85;3.08;;;;;;;4.14;100.00;98986.28;4984300;28;20042;-88
2022/01/09 11:57:47;;;;;;;12.25;3.13;;;;;;;4.14;100.00;98994.03;4964219;28;20057;-85
2022/01/09 12:00:42;;;;;;;13.25;4.03;;;;;;;4.13;100.00;99002.69;4967287;28;20077;-85
2022/01/09 12:03:27;;;;;;;11.55;3.03;;;;;;;4.10;100.00;99013.06;4970483;28;20171;-91
2022/01/09 12:06:13;;;;;;;15.40;4.82;;;;;;;4.11;100.00;99015.66;4989811;28;20440;-84
2022/01/09 12:08:56;;;;;;;7.22;2.47;;;;;;;4.10;100.00;99013.06;4959636;28;20050;-85
2022/01/09 12:11:22;;;;;;;11.25;3.17;;;;;;;4.12;100.00;99016.53;4989061;28;20056;-84
2022/01/09 12:13:52;;;;;;;6.88;2.65;;;;;;;4.09;100.00;99017.41;4970470;28;20046;-88
2022/01/09 12:16:49;;;;;;;17.33;3.97;;;;;;;4.10;100.00;99023.44;4969344;28;20073;-81
2022/01/09 12:20:07;;;;;;;11.45;3.38;;;;;;;4.11;100.00;99031.19;4973813;28;20050;-83
2022/01/09 12:22:40;;;;;;;11.38;3.10;;;;;;;4.12;100.00;99025.13;4937299;28;20053;-88
2022/01/09 12:25:29;;;;;;;10.40;2.72;;;;;;;4.18;100.00;99039.75;4998674;28;20109;-90
2022/01/09 12:28:19;;;;;;;15.18;3.88;;;;;;;4.20;100.00;99043.19;4980039;28;20043;-84
2022/01/09 12:31:03;;;;;;;12.52;2.15;;;;;;;4.23;100.00;99052.69;4975826;28;20038;-91
2022/01/09 12:33:31;;;;;;;15.07;3.88;;;;;;;4.23;100.00;99047.50;4968476;28;20049;-92
2022/01/09 12:36:15;;;;;;;16.27;2.92;;;;;;;4.24;100.00;99060.44;4997489;28;20149;-92